»·PEaware :: N114HT KBFL-KMHV

N114HT :: KBFL-KMHV

FLIGHT INFORMATION

Flight Status: Arrived
Operator: Privately registered:
United States
More flights under this callsign
Pilot: Heigo T. (17565)
Aircraft: CESSNA 182 SKYLANE
(C182)
More flights by this aircraft type
Origin: KBFL Meadows
United States
Destination: KMHV Mojave
United States
More flights between these airports :: More routes between these airports
Route: +DCT
File this flight plan on PilotEdge
Remarks:
Altitude:
(Current/Filed)
7,500ft
Speed:
(Current/Filed)
135kts
Departed: 07-Jan-18 12:48 PM
Arrived: 07-Jan-18 01:22 PM
Distance/Time
Traveled:
50nm/0:33
Distance/Time
To Go:
Arrived

Flight Plot

Page will automatically refresh every two minutes.


Map Options




Map Legend


Flown Route
Filed Route
Departure Airport
Arrival Airport
Navaid (VOR, NDB)
Fix

Horizontal Profiles

Position Reports

Time Latitude Longitude Heading Altitude Ground
Speed
07-Jan-18 12:40 35.427764 -119.055386 53 510ft 0kts
07-Jan-18 12:41 35.427766 -119.055382 53 510ft 0kts
07-Jan-18 12:42 35.427769 -119.055378 53 510ft 0kts
07-Jan-18 12:43 35.427771 -119.055373 53 510ft 0kts
07-Jan-18 12:44 35.427774 -119.055369 53 510ft 0kts
07-Jan-18 12:45 35.427777 -119.055365 53 510ft 0kts
07-Jan-18 12:46 35.427779 -119.055360 53 510ft 0kts
07-Jan-18 12:47 35.426222 -119.054145 129 510ft 11kts
07-Jan-18 12:48 35.425226 -119.052016 54 510ft 14kts
07-Jan-18 12:49 35.425866 -119.050986 47 510ft 0kts
07-Jan-18 12:50 35.425871 -119.050979 47 510ft 0kts
07-Jan-18 12:51 35.425875 -119.050973 47 510ft 0kts
07-Jan-18 12:52 35.425880 -119.050967 47 510ft 0kts
07-Jan-18 12:53 35.426807 -119.051252 315 510ft 12kts
07-Jan-18 12:54 35.435483 -119.062082 310 747ft 95kts
07-Jan-18 12:55 35.461524 -119.068104 46 1428ft 132kts
07-Jan-18 12:56 35.457553 -119.025427 124 1588ft 140kts
07-Jan-18 12:57 35.434735 -118.988950 131 1892ft 125kts
07-Jan-18 12:58 35.412331 -118.954240 131 2012ft 136kts
07-Jan-18 13:00 35.378295 -118.901742 131 2005ft 139kts
07-Jan-18 13:01 35.354087 -118.864411 131 2011ft 139kts
07-Jan-18 13:02 35.338176 -118.825396 87 2200ft 128kts
07-Jan-18 13:03 35.326893 -118.786922 123 2702ft 120kts
07-Jan-18 13:04 35.306340 -118.754545 131 3212ft 120kts
07-Jan-18 13:05 35.284045 -118.725874 138 3907ft 114kts
07-Jan-18 13:06 35.269257 -118.692409 103 4621ft 115kts
07-Jan-18 13:07 35.269430 -118.653028 111 5336ft 114kts
07-Jan-18 13:08 35.257321 -118.617879 117 6022ft 114kts
07-Jan-18 13:09 35.240770 -118.584054 125 6725ft 113kts
07-Jan-18 13:10 35.222661 -118.554278 126 7406ft 108kts
07-Jan-18 13:11 35.203855 -118.519412 126 7564ft 137kts
07-Jan-18 13:12 35.181864 -118.479531 133 7559ft 143kts
07-Jan-18 13:13 35.159286 -118.439872 117 7562ft 144kts
07-Jan-18 13:14 35.142521 -118.394885 117 7556ft 147kts
07-Jan-18 13:15 35.124359 -118.347070 117 7016ft 159kts
07-Jan-18 13:16 35.109700 -118.296883 94 6495ft 158kts
07-Jan-18 13:17 35.120500 -118.247957 60 5986ft 151kts
07-Jan-18 13:18 35.142692 -118.205063 60 5551ft 143kts
07-Jan-18 13:19 35.148311 -118.163260 105 5554ft 127kts
07-Jan-18 13:20 35.139681 -118.120486 106 5323ft 137kts
07-Jan-18 13:21 35.155020 -118.088638 343 4790ft 148kts
07-Jan-18 13:22 35.151658 -118.127957 219 4293ft 145kts
07-Jan-18 13:23 35.115942 -118.144190 197 3994ft 125kts
07-Jan-18 13:24 35.083757 -118.147072 167 3998ft 111kts
07-Jan-18 13:25 35.060530 -118.126045 131 4005ft 104kts
07-Jan-18 13:26 35.038402 -118.104906 191 3763ft 111kts
07-Jan-18 13:27 35.041963 -118.128030 324 3017ft 81kts
07-Jan-18 13:28 35.052860 -118.140543 313 2794ft 31kts
07-Jan-18 13:29 35.057568 -118.147563 268 2794ft 0kts
07-Jan-18 13:30 35.057567 -118.149879 269 2794ft 17kts
07-Jan-18 13:31 35.057331 -118.150673 344 2794ft 0kts
07-Jan-18 13:32 35.057331 -118.150673 344 2794ft 0kts
07-Jan-18 13:33 35.057331 -118.150673 344 2794ft 0kts
07-Jan-18 13:34 35.057331 -118.150673 344 2794ft 0kts
07-Jan-18 13:35 35.057331 -118.150673 344 2794ft 0kts

Navigation Log

Ident Type
1. KBFL Airport
2. KMHV Airport